createdAt,value
2023-01-12T00:01:42.097Z,6.30
2023-01-12T00:07:11.110Z,5.40
2023-01-12T00:12:35.091Z,5.35
2023-01-12T00:18:00.121Z,3.58
2023-01-12T00:23:29.100Z,3.85
2023-01-12T00:28:54.090Z,4.43
2023-01-12T00:34:18.125Z,4.90
2023-01-12T00:40:01.461Z,5.75
2023-01-12T00:45:34.114Z,5.35
2023-01-12T00:50:59.112Z,5.93
2023-01-12T00:56:26.077Z,8.80
2023-01-12T01:01:57.107Z,6.80
2023-01-12T01:07:25.126Z,4.93
2023-01-12T01:12:54.130Z,4.53
2023-01-12T01:18:19.115Z,5.03
2023-01-12T01:23:45.141Z,6.03
2023-01-12T01:29:13.209Z,4.47
2023-01-12T01:34:37.098Z,7.45
2023-01-12T01:40:03.172Z,5.68
2023-01-12T01:45:30.194Z,5.25
2023-01-12T01:51:04.142Z,5.15
2023-01-12T01:56:35.149Z,4.60
2023-01-12T02:02:10.165Z,5.83
2023-01-12T02:07:35.129Z,7.97
2023-01-12T02:13:13.124Z,5.40
2023-01-12T02:18:48.173Z,5.80
2023-01-12T02:24:42.145Z,5.47
2023-01-12T02:30:38.133Z,5.57
2023-01-12T02:36:11.140Z,6.18
2023-01-12T02:42:13.179Z,5.28
2023-01-12T02:53:14.259Z,4.35
2023-01-12T02:58:50.136Z,5.38
2023-01-12T03:04:18.131Z,7.15
2023-01-12T03:09:50.170Z,3.45
2023-01-12T03:15:19.159Z,6.38
2023-01-12T03:20:46.155Z,4.63
2023-01-12T03:26:17.290Z,4.78
2023-01-12T03:31:43.243Z,5.43
2023-01-12T03:37:16.177Z,3.40
2023-01-12T03:42:50.188Z,6.50
2023-01-12T03:48:23.210Z,5.72
2023-01-12T03:53:49.255Z,6.60
2023-01-12T03:59:18.195Z,7.05
2023-01-12T04:04:42.212Z,5.28
2023-01-12T04:10:07.162Z,6.45
2023-01-12T04:15:34.178Z,8.32
2023-01-12T04:20:59.178Z,5.72
2023-01-12T04:26:24.208Z,4.50
2023-01-12T04:31:52.283Z,4.28
2023-01-12T04:37:17.228Z,4.07
2023-01-12T04:42:55.228Z,4.63
2023-01-12T04:48:26.172Z,6.35
2023-01-12T04:53:51.267Z,4.47
2023-01-12T04:59:17.234Z,3.65
2023-01-12T05:04:45.207Z,4.00
2023-01-12T10:25:50.337Z,0.80
2023-01-12T10:31:15.405Z,1.13
2023-01-12T10:36:39.488Z,0.80
2023-01-12T10:42:38.350Z,2.05
2023-01-12T10:48:04.345Z,0.88
2023-01-12T10:53:39.363Z,0.73
2023-01-12T10:59:13.425Z,0.25
2023-01-12T11:04:39.362Z,0.80
2023-01-12T11:10:05.400Z,0.88
2023-01-12T11:15:33.392Z,0.75
2023-01-12T11:21:03.349Z,0.80
2023-01-12T11:26:38.374Z,1.02
2023-01-12T11:32:10.412Z,0.50
2023-01-12T11:37:34.400Z,0.10
2023-01-12T11:43:13.377Z,2.17
2023-01-12T11:48:50.387Z,0.50
2023-01-12T11:54:19.397Z,0.52
2023-01-12T11:59:52.364Z,0.30
2023-01-12T12:05:37.371Z,0.60
2023-01-12T12:11:07.373Z,0.10
2023-01-12T12:16:40.407Z,0.32
2023-01-12T12:22:17.394Z,0.20
2023-01-12T12:28:05.622Z,0.32
2023-01-12T12:33:40.447Z,0.38
2023-01-12T12:39:41.433Z,0.10
2023-01-12T12:45:24.395Z,0.10
2023-01-12T12:50:55.405Z,2.17
2023-01-12T12:56:26.405Z,0.30
2023-01-12T13:01:52.468Z,0.40
2023-01-12T13:07:22.419Z,0.50
2023-01-12T13:12:51.460Z,2.20
2023-01-12T13:25:04.469Z,0.73
2023-01-12T13:30:49.426Z,0.10
2023-01-12T13:36:26.443Z,0.32
2023-01-12T13:42:06.730Z,0.45
2023-01-12T13:47:43.481Z,0.93
2023-01-12T13:53:16.465Z,0.25
2023-01-12T13:58:48.494Z,0.50
2023-01-12T14:04:36.442Z,0.47
2023-01-12T14:10:13.475Z,0.45
2023-01-12T14:15:56.489Z,0.73
2023-01-12T14:21:35.464Z,0.63
2023-01-12T14:27:07.455Z,1.00
2023-01-12T14:32:33.476Z,0.40
2023-01-12T14:38:05.488Z,1.00
2023-01-12T14:43:42.471Z,1.10
2023-01-12T14:49:32.459Z,0.52
2023-01-12T14:55:00.478Z,1.52
2023-01-12T15:00:36.548Z,0.55
2023-01-12T15:06:01.502Z,0.63
2023-01-12T15:11:29.485Z,0.68
2023-01-12T15:17:06.475Z,0.52
2023-01-12T15:22:43.494Z,0.98
2023-01-12T15:28:17.482Z,0.88
2023-01-12T15:33:42.482Z,0.93
2023-01-12T15:39:06.490Z,0.65
2023-01-12T15:44:34.491Z,0.85
2023-01-12T15:50:00.519Z,0.90
2023-01-12T15:55:28.598Z,1.00
2023-01-12T16:00:55.599Z,0.52
2023-01-12T16:06:21.530Z,0.40
2023-01-12T16:11:45.505Z,0.90
2023-01-12T16:17:13.501Z,0.38
2023-01-12T16:22:40.508Z,0.63
2023-01-12T16:28:12.512Z,0.60
2023-01-12T16:33:40.494Z,0.38
2023-01-12T16:39:06.545Z,0.45
2023-01-12T16:44:31.501Z,0.52
2023-01-12T16:49:58.517Z,0.40
2023-01-12T16:55:23.525Z,0.30
2023-01-12T17:00:47.546Z,0.20
2023-01-12T17:06:17.537Z,0.22
2023-01-12T17:11:41.554Z,0.30
2023-01-12T17:17:08.531Z,0.40
2023-01-12T17:22:38.529Z,0.60
2023-01-12T17:28:10.543Z,0.45
2023-01-12T17:33:35.725Z,0.40
2023-01-12T17:39:02.531Z,0.30
2023-01-12T17:44:27.551Z,0.40
2023-01-12T17:49:54.578Z,0.40
2023-01-12T17:55:22.563Z,0.28
2023-01-12T18:00:47.584Z,0.30
2023-01-12T18:06:18.586Z,0.30
2023-01-12T18:11:52.564Z,0.30
2023-01-12T18:17:17.543Z,0.20
2023-01-12T18:22:41.557Z,0.20
2023-01-12T18:28:15.570Z,0.25
2023-01-12T18:33:40.582Z,0.30
2023-01-12T18:39:05.590Z,0.13
2023-01-12T18:44:34.581Z,0.20
2023-01-12T18:50:00.573Z,0.30
2023-01-12T18:55:25.588Z,0.65
2023-01-12T19:00:52.634Z,0.40
2023-01-12T19:06:29.595Z,0.13
2023-01-12T19:11:55.603Z,0.32
2023-01-12T19:17:41.916Z,0.30
2023-01-12T19:23:18.611Z,0.20
2023-01-12T19:28:49.608Z,0.20
2023-01-12T19:34:17.606Z,0.13
2023-01-12T19:40:00.557Z,0.10
2023-01-12T19:45:25.683Z,0.43
2023-01-12T19:50:53.647Z,0.50
2023-01-12T19:56:19.666Z,1.17
2023-01-12T20:01:43.830Z,0.35
2023-01-12T20:07:11.646Z,0.38
2023-01-12T20:12:35.640Z,0.35
2023-01-12T20:18:02.670Z,0.20
2023-01-12T20:23:30.659Z,0.20
2023-01-12T20:28:55.633Z,0.15
2023-01-12T20:34:19.638Z,0.38
2023-01-12T20:39:47.677Z,0.47
2023-01-12T20:45:11.619Z,1.10
2023-01-12T20:50:36.662Z,1.02
2023-01-12T20:56:05.658Z,0.22
2023-01-12T21:01:30.776Z,0.20
2023-01-12T21:06:57.716Z,0.40
2023-01-12T21:12:27.551Z,0.38
2023-01-12T21:17:52.657Z,0.20
2023-01-12T21:23:17.669Z,0.43
2023-01-12T21:28:52.675Z,0.13
2023-01-12T21:34:17.688Z,0.82
2023-01-12T21:39:41.666Z,0.35
2023-01-12T21:45:09.647Z,0.30
2023-01-12T21:50:34.684Z,0.10
2023-01-12T21:56:03.662Z,1.85
2023-01-12T22:01:30.785Z,0.10
2023-01-12T22:06:55.680Z,0.52
2023-01-12T22:12:20.679Z,0.20
2023-01-12T22:17:48.682Z,0.70
2023-01-12T22:23:12.738Z,0.40
2023-01-12T22:28:43.725Z,1.10
2023-01-12T22:34:13.717Z,0.20
2023-01-12T22:39:37.752Z,1.17
2023-01-12T22:45:08.696Z,0.30
2023-01-12T22:50:36.723Z,0.63
2023-01-12T22:56:00.743Z,0.35
2023-01-12T23:01:27.743Z,0.22
2023-01-12T23:06:54.767Z,0.35
2023-01-12T23:12:19.738Z,0.28
2023-01-12T23:17:43.750Z,0.40
2023-01-12T23:23:11.724Z,0.30
2023-01-12T23:28:43.749Z,0.22
2023-01-12T23:34:08.772Z,0.28
2023-01-12T23:39:36.736Z,0.10
2023-01-12T23:45:01.819Z,0.73
2023-01-12T23:50:27.750Z,0.52
2023-01-12T23:55:55.763Z,1.70
